createdAt,value
2022-10-24T00:03:38.611Z,75478.78
2022-10-24T00:07:40.491Z,75455.94
2022-10-24T00:11:42.785Z,75462.19
2022-10-24T00:15:47.063Z,75468.41
2022-10-24T00:19:48.607Z,75460.09
2022-10-24T00:23:50.234Z,75464.25
2022-10-24T00:27:51.644Z,75472.56
2022-10-24T00:31:54.563Z,75495.41
2022-10-24T00:35:56.224Z,75485.00
2022-10-24T00:39:57.811Z,75501.63
2022-10-24T00:44:20.140Z,75487.09
2022-10-24T00:48:26.923Z,75497.47
2022-10-24T00:52:33.396Z,75505.78
2022-10-24T00:56:38.766Z,75505.78
2022-10-24T01:00:40.420Z,75489.16
2022-10-24T01:04:43.414Z,75495.41
2022-10-24T01:08:50.813Z,75503.69
2022-10-24T01:12:58.256Z,75526.53
2022-10-24T01:17:07.396Z,75497.47
2022-10-24T01:21:20.290Z,75499.53
2022-10-24T01:25:34.567Z,75489.16
2022-10-24T01:29:52.034Z,75493.31
2022-10-24T01:33:59.338Z,75487.09
2022-10-24T01:38:07.238Z,75489.16
2022-10-24T01:42:11.499Z,75464.25
2022-10-24T01:46:19.582Z,75464.25
2022-10-24T01:50:23.712Z,75460.09
2022-10-24T01:54:25.503Z,75447.66
2022-10-24T01:58:27.068Z,75443.50
2022-10-24T02:02:34.533Z,75439.34
2022-10-24T02:06:39.899Z,75441.44
2022-10-24T02:10:47.062Z,75441.44
2022-10-24T02:14:53.523Z,75464.25
2022-10-24T02:18:57.746Z,75455.94
2022-10-24T02:23:05.086Z,75460.09
2022-10-24T02:27:09.654Z,75453.88
2022-10-24T02:31:15.359Z,75443.50
2022-10-24T02:35:23.036Z,75447.66
2022-10-24T02:39:26.294Z,75460.09
2022-10-24T02:43:32.178Z,75449.72
2022-10-24T02:47:34.859Z,75441.44
2022-10-24T02:51:40.863Z,75441.44
2022-10-24T02:55:42.622Z,75443.50
2022-10-24T02:59:44.098Z,75431.03
2022-10-24T03:03:45.531Z,75435.19
2022-10-24T03:07:48.458Z,75455.94
2022-10-24T03:11:50.013Z,75455.94
2022-10-24T03:15:51.634Z,75468.41
2022-10-24T03:19:53.194Z,75476.72
2022-10-24T03:23:55.998Z,75470.47
2022-10-24T03:27:57.418Z,75451.81
2022-10-24T03:31:58.835Z,75460.09
2022-10-24T03:36:01.082Z,75474.63
2022-10-24T03:40:04.716Z,75478.78
2022-10-24T03:44:06.375Z,75460.09
2022-10-24T03:48:09.853Z,75445.56
2022-10-24T03:52:11.883Z,75433.13
2022-10-24T03:56:14.806Z,75399.91
2022-10-24T04:00:16.750Z,75399.91
2022-10-24T04:04:18.327Z,75414.44
2022-10-24T04:08:20.167Z,75401.97
2022-10-24T04:12:23.519Z,75399.91
2022-10-24T04:16:25.099Z,75393.69
2022-10-24T04:20:26.754Z,75414.44
2022-10-24T04:24:28.278Z,75412.38
2022-10-24T04:28:31.244Z,75401.97
2022-10-24T04:32:33.372Z,75397.84
2022-10-24T04:36:35.255Z,75410.28
2022-10-24T04:40:36.803Z,75397.84
2022-10-24T04:44:39.759Z,75393.69
2022-10-24T04:48:41.371Z,75393.69
2022-10-24T04:52:42.789Z,75397.84
2022-10-24T04:56:44.412Z,75401.97
2022-10-24T05:00:47.501Z,75408.22
2022-10-24T05:04:48.928Z,75399.91
2022-10-24T05:08:50.496Z,75399.91
2022-10-24T05:12:51.889Z,75406.13
2022-10-24T05:16:54.630Z,75412.38
2022-10-24T05:20:56.300Z,75426.91
2022-10-24T05:24:57.945Z,75428.97
2022-10-24T05:28:59.448Z,75431.03
2022-10-24T05:33:02.212Z,75433.13
2022-10-24T05:37:03.663Z,75451.81
2022-10-24T05:41:07.431Z,75445.56
2022-10-24T05:45:10.530Z,75460.09
2022-10-24T05:49:14.439Z,75460.09
2022-10-24T05:53:16.031Z,75476.72
2022-10-24T05:57:17.528Z,75507.84
2022-10-24T06:01:19.140Z,75503.69
2022-10-24T06:05:21.947Z,75507.84
2022-10-24T06:09:24.307Z,75480.88
2022-10-24T06:13:25.685Z,75489.16
2022-10-24T06:17:27.436Z,75491.25
2022-10-24T06:21:30.415Z,75514.06
2022-10-24T06:25:31.859Z,75505.78
2022-10-24T06:29:33.460Z,75520.31
2022-10-24T06:33:35.125Z,75522.38
2022-10-24T06:37:37.840Z,75530.69
2022-10-24T06:41:39.284Z,75524.44
2022-10-24T06:45:40.705Z,75522.38
2022-10-24T06:49:42.252Z,75541.06
2022-10-24T06:53:45.098Z,75536.91
2022-10-24T06:57:46.965Z,75507.84
2022-10-24T07:01:48.593Z,75514.06
2022-10-24T07:05:50.147Z,75501.63
2022-10-24T07:09:54.642Z,75499.53
2022-10-24T07:13:59.635Z,75503.69
2022-10-24T07:18:02.450Z,75505.78
2022-10-24T07:22:03.882Z,75514.06
2022-10-24T07:26:10.498Z,75501.63
2022-10-24T07:30:16.662Z,75499.53
2022-10-24T07:34:18.362Z,75489.16
2022-10-24T07:38:19.775Z,75472.56
2022-10-24T07:42:22.561Z,75464.25
2022-10-24T07:46:25.492Z,75449.72
2022-10-24T07:50:27.235Z,75455.94
2022-10-24T07:54:30.642Z,75464.25
2022-10-24T07:58:36.615Z,75455.94
2022-10-24T08:02:38.049Z,75447.66
2022-10-24T08:06:40.071Z,75443.50
2022-10-24T08:10:41.520Z,75426.91
2022-10-24T08:14:44.284Z,75372.94
2022-10-24T08:18:45.825Z,75335.56
2022-10-24T08:22:47.612Z,75302.34
2022-10-24T08:26:49.210Z,75289.91
2022-10-24T08:30:58.686Z,75287.81
2022-10-24T08:35:00.129Z,75298.19
2022-10-24T08:39:02.732Z,75285.75
2022-10-24T08:43:04.320Z,75294.06
2022-10-24T08:47:18.077Z,75281.59
2022-10-24T08:51:30.678Z,75289.91
2022-10-24T08:55:48.876Z,75277.44
2022-10-24T08:59:53.290Z,75246.31
2022-10-24T09:04:00.112Z,75215.19
2022-10-24T09:08:20.287Z,75192.34
2022-10-24T09:12:24.430Z,75154.97
2022-10-24T09:16:25.822Z,75144.59
2022-10-24T09:20:30.470Z,75121.78
2022-10-24T09:24:39.622Z,75111.41
2022-10-24T09:28:41.757Z,75130.06
2022-10-24T09:32:43.733Z,75101.00
2022-10-24T09:36:46.840Z,75098.94
2022-10-24T09:40:51.192Z,75121.78
2022-10-24T09:44:57.815Z,75152.91
2022-10-24T09:49:02.792Z,75165.34
2022-10-24T09:53:05.866Z,75186.13
2022-10-24T10:01:21.905Z,75211.03
2022-10-24T10:05:23.776Z,75165.34
2022-10-24T10:09:33.644Z,75179.88
2022-10-24T10:13:43.046Z,75190.25
2022-10-24T10:17:50.050Z,75163.28
2022-10-24T10:21:54.723Z,75181.97
2022-10-24T10:26:16.343Z,75173.66
2022-10-24T10:30:20.824Z,75192.34
2022-10-24T10:34:23.855Z,75208.94
2022-10-24T10:38:41.627Z,75225.56
2022-10-24T10:42:53.207Z,75240.09
2022-10-24T10:47:05.946Z,75231.78
2022-10-24T10:51:18.439Z,75260.84
2022-10-24T10:55:28.191Z,75258.75
2022-10-24T10:59:42.174Z,75248.38
2022-10-24T11:03:48.558Z,75190.25
2022-10-24T11:08:00.833Z,75167.44
2022-10-24T11:12:11.934Z,75194.41
2022-10-24T11:16:19.884Z,75242.16
2022-10-24T11:20:26.440Z,75231.78
2022-10-24T11:24:33.939Z,75233.84
2022-10-24T11:28:41.960Z,75238.00
2022-10-24T11:32:50.658Z,75250.47
2022-10-24T11:36:58.209Z,75242.16
2022-10-24T11:41:38.575Z,75275.38
2022-10-24T11:45:46.975Z,75294.06
2022-10-24T11:49:56.702Z,75298.19
2022-10-24T11:54:02.769Z,75281.59
2022-10-24T11:58:08.666Z,75267.06
2022-10-24T12:02:49.434Z,75279.53
2022-10-24T12:07:13.680Z,75273.28
2022-10-24T12:11:28.545Z,75244.22
2022-10-24T12:15:44.947Z,75227.63
2022-10-24T12:19:47.416Z,75238.00
2022-10-24T12:23:57.395Z,75240.09
2022-10-24T12:28:01.915Z,75260.84
2022-10-24T12:32:31.246Z,75289.91
2022-10-24T12:37:08.760Z,75294.06
2022-10-24T12:41:39.504Z,75302.34
2022-10-24T12:45:40.959Z,75329.34
2022-10-24T12:49:42.492Z,75331.41
2022-10-24T12:54:02.934Z,75325.19
2022-10-24T12:58:22.005Z,75304.44
2022-10-24T13:02:33.361Z,75321.03
2022-10-24T13:06:51.659Z,75302.34
2022-10-24T13:11:07.781Z,75275.38
2022-10-24T13:15:26.118Z,75265.00
2022-10-24T13:19:29.028Z,75260.84
2022-10-24T13:23:32.889Z,75258.75
2022-10-24T13:27:34.309Z,75265.00
2022-10-24T13:31:49.715Z,75256.69
2022-10-24T13:35:52.905Z,75258.75
2022-10-24T13:40:00.491Z,75240.09
2022-10-24T13:44:06.133Z,75246.31
2022-10-24T13:48:13.351Z,75227.63
2022-10-24T13:52:23.062Z,75229.69
2022-10-24T13:56:27.744Z,75248.38
2022-10-24T14:00:32.147Z,75265.00
2022-10-24T14:04:35.609Z,75279.53
2022-10-24T14:08:42.005Z,75287.81
2022-10-24T14:12:44.041Z,75300.28
2022-10-24T14:16:45.967Z,75325.19
2022-10-24T14:20:54.163Z,75318.97
2022-10-24T14:24:56.287Z,75312.72
2022-10-24T14:29:00.017Z,75310.66
2022-10-24T14:33:07.117Z,75329.34
2022-10-24T14:37:15.394Z,75327.25
2022-10-24T14:41:18.707Z,75316.88
2022-10-24T14:45:25.025Z,75327.25
2022-10-24T14:49:30.523Z,75356.31
2022-10-24T14:53:33.319Z,75356.31
2022-10-24T14:57:36.591Z,75370.84
2022-10-24T15:01:38.272Z,75362.53
2022-10-24T15:05:40.216Z,75385.38
2022-10-24T15:09:54.344Z,75375.00
2022-10-24T15:14:06.426Z,75387.47
2022-10-24T15:18:20.976Z,75379.16
2022-10-24T15:22:27.274Z,75397.84
2022-10-24T15:26:33.335Z,75426.91
2022-10-24T15:30:37.460Z,75389.53
2022-10-24T15:34:39.165Z,75414.44
2022-10-24T15:38:41.424Z,75424.81
2022-10-24T15:42:44.550Z,75447.66
2022-10-24T15:46:47.847Z,75476.72
2022-10-24T15:50:49.285Z,75487.09
2022-10-24T15:54:52.186Z,75476.72
2022-10-24T15:58:55.115Z,75491.25
2022-10-24T16:03:00.405Z,75482.94
2022-10-24T16:07:01.825Z,75476.72
2022-10-24T16:11:06.226Z,75480.88
2022-10-24T16:15:19.605Z,75501.63
2022-10-24T16:19:21.028Z,75505.78
2022-10-24T16:23:22.608Z,75536.91
2022-10-24T16:27:24.012Z,75545.22
2022-10-24T16:31:26.940Z,75555.59
2022-10-24T16:35:30.772Z,75559.75
2022-10-24T16:39:33.305Z,75547.28
2022-10-24T16:43:38.796Z,75576.34
2022-10-24T16:47:44.224Z,75570.13
2022-10-24T16:51:45.793Z,75588.81
2022-10-24T16:55:48.221Z,75582.56
2022-10-24T16:59:50.360Z,75592.97
2022-10-24T17:03:53.312Z,75595.03
2022-10-24T17:07:55.229Z,75605.41
2022-10-24T17:11:56.804Z,75617.88
2022-10-24T17:15:58.420Z,75622.03
2022-10-24T17:20:01.582Z,75640.69
2022-10-24T17:24:03.475Z,75649.00
2022-10-24T17:28:05.244Z,75642.78
2022-10-24T17:32:07.376Z,75655.22
2022-10-24T17:36:19.150Z,75651.09
2022-10-24T17:40:22.373Z,75653.16
2022-10-24T17:44:24.468Z,75634.47
2022-10-24T17:48:26.029Z,75651.09
2022-10-24T17:52:28.956Z,75638.63
2022-10-24T17:56:30.490Z,75659.38
2022-10-24T18:00:32.099Z,75663.53
2022-10-24T18:04:33.508Z,75663.53
2022-10-24T18:08:36.276Z,75673.91
2022-10-24T18:12:39.724Z,75686.38
2022-10-24T18:16:41.229Z,75696.75
2022-10-24T18:20:42.670Z,75696.75
2022-10-24T18:24:45.649Z,75707.13
2022-10-24T18:28:49.334Z,75707.13
2022-10-24T18:32:50.986Z,75719.59
2022-10-24T18:36:52.735Z,75723.75
2022-10-24T18:40:56.192Z,75732.03
2022-10-24T18:44:58.288Z,75742.41
2022-10-24T18:49:00.394Z,75750.72
2022-10-24T18:53:05.243Z,75746.56
2022-10-24T18:57:20.385Z,75767.34
2022-10-24T19:01:28.212Z,75783.94
2022-10-24T19:05:40.653Z,75771.47
2022-10-24T19:09:42.409Z,75771.47
2022-10-24T19:13:45.544Z,75775.63
2022-10-24T19:17:47.966Z,75788.09
2022-10-24T19:21:49.966Z,75777.72
2022-10-24T19:25:51.899Z,75779.78
2022-10-24T19:29:54.716Z,75798.47
2022-10-24T19:33:56.105Z,75808.84
2022-10-24T19:37:57.681Z,75813.00
2022-10-24T19:41:59.224Z,75835.84
2022-10-24T19:46:15.131Z,75842.06
2022-10-24T19:50:20.715Z,75850.38
2022-10-24T19:54:22.380Z,75860.75
2022-10-24T19:58:23.772Z,75871.13
2022-10-24T20:02:26.705Z,75923.03
2022-10-24T20:06:28.126Z,75956.25
2022-10-24T20:10:29.554Z,75943.78
2022-10-24T20:14:31.925Z,75956.25
2022-10-24T20:18:36.404Z,75968.69
2022-10-24T20:22:38.105Z,75987.38
2022-10-24T20:26:39.649Z,76016.44
2022-10-24T20:30:43.820Z,76043.44
2022-10-24T20:34:46.608Z,76053.81
2022-10-24T20:38:48.108Z,76070.44
2022-10-24T20:42:50.904Z,76047.59
2022-10-24T20:46:52.440Z,76041.38
2022-10-24T20:51:02.824Z,76041.38
2022-10-24T20:55:11.207Z,76037.22
2022-10-24T20:59:21.321Z,76049.66
2022-10-24T21:03:22.948Z,76055.91
2022-10-24T21:07:25.922Z,76043.44
2022-10-24T21:11:29.386Z,76033.06
2022-10-24T21:15:30.932Z,76012.28
2022-10-24T21:19:32.376Z,76035.13
2022-10-24T21:23:35.380Z,76043.44
2022-10-24T21:27:36.768Z,76053.81
2022-10-24T21:31:38.268Z,76062.13
2022-10-24T21:35:39.708Z,76082.88
2022-10-24T21:39:42.497Z,76068.34
2022-10-24T21:43:44.317Z,76051.75
2022-10-24T21:47:46.072Z,76082.88
2022-10-24T21:51:48.344Z,76111.94
2022-10-24T21:55:51.226Z,76107.78
2022-10-24T21:59:52.830Z,76128.56
2022-10-24T22:03:55.260Z,76124.41
2022-10-24T22:07:56.850Z,76155.53
2022-10-24T22:11:59.680Z,76172.16
2022-10-24T22:16:02.084Z,76192.91
2022-10-24T22:20:04.308Z,76203.28
2022-10-24T22:28:16.542Z,76236.50
2022-10-24T22:32:18.449Z,76244.81
2022-10-24T22:36:27.532Z,76234.44
2022-10-24T22:40:30.976Z,76240.66
2022-10-24T22:44:34.704Z,76244.81
2022-10-24T22:48:42.304Z,76238.59
2022-10-24T22:52:44.769Z,76251.06
2022-10-24T22:56:47.364Z,76242.75
2022-10-24T23:00:55.843Z,76232.38
2022-10-24T23:05:04.596Z,76224.06
2022-10-24T23:09:05.961Z,76228.22
2022-10-24T23:13:08.101Z,76257.28
2022-10-24T23:17:13.555Z,76269.72
2022-10-24T23:21:25.284Z,76292.56
2022-10-24T23:25:27.691Z,76292.56
2022-10-24T23:29:31.331Z,76302.94
2022-10-24T23:33:34.966Z,76311.25
2022-10-24T23:37:38.904Z,76329.94
2022-10-24T23:41:41.249Z,76329.94
2022-10-24T23:45:50.390Z,76342.41
2022-10-24T23:50:00.528Z,76348.63
2022-10-24T23:54:02.569Z,76356.94
2022-10-24T23:58:03.984Z,76367.31
